Time;durP1;ratioP1;P1;durP2;ratioP2;P2;SDS_P1;SDS_P2;PMS_P1;PMS_P2;Temp;Humidity;BMP_temperature;BMP_pressure;BME280_temperature;BME280_humidity;BME280_pressure;Samples;Min_cycle;Max_cycle;Signal;HPM_P1;HPM_P2
2023/11/06 00:00:57;;;;;;;7.75;1.50;;;12.80;99.90;;;;;;5049899;28;20140;-72
2023/11/06 00:03:43;;;;;;;3.95;1.92;;;12.80;99.90;;;;;;5054800;28;20064;-72
2023/11/06 00:06:30;;;;;;;4.97;1.85;;;12.80;99.90;;;;;;5060956;28;20425;-71
2023/11/06 00:09:16;;;;;;;4.50;1.40;;;12.80;99.90;;;;;;5050448;28;20057;-71
2023/11/06 00:12:02;;;;;;;2.67;1.50;;;12.90;99.90;;;;;;5049672;28;20114;-72
2023/11/06 00:14:48;;;;;;;3.55;1.92;;;12.90;99.90;;;;;;5049501;28;20041;-73
2023/11/06 00:17:34;;;;;;;3.85;1.58;;;12.80;99.90;;;;;;5051052;28;20131;-74
2023/11/06 00:20:21;;;;;;;3.45;1.60;;;12.90;99.90;;;;;;5049042;28;20033;-73
2023/11/06 00:23:07;;;;;;;3.03;1.70;;;12.90;99.90;;;;;;5050134;28;20056;-72
2023/11/06 00:25:53;;;;;;;3.38;1.73;;;12.90;99.90;;;;;;5050259;28;20140;-73
2023/11/06 00:28:39;;;;;;;2.28;1.40;;;12.90;99.90;;;;;;5060032;28;20048;-70
2023/11/06 00:31:25;;;;;;;2.60;1.50;;;12.90;99.90;;;;;;5068783;28;20051;-72
2023/11/06 00:34:12;;;;;;;4.82;1.98;;;12.90;99.90;;;;;;5068383;28;20032;-71
2023/11/06 00:36:58;;;;;;;2.97;1.60;;;12.90;99.90;;;;;;5068061;28;20059;-72
2023/11/06 00:39:44;;;;;;;3.35;1.30;;;12.90;99.90;;;;;;5072146;28;20474;-71
2023/11/06 00:42:31;;;;;;;4.78;1.45;;;12.90;99.90;;;;;;5053395;28;20040;-71
2023/11/06 00:45:17;;;;;;;6.63;1.77;;;12.90;99.90;;;;;;5068103;28;20052;-70
2023/11/06 00:48:04;;;;;;;2.67;1.23;;;12.90;99.90;;;;;;5068357;28;21584;-72
2023/11/06 00:50:50;;;;;;;2.63;1.55;;;12.90;99.90;;;;;;5069538;28;20047;-72
2023/11/06 00:53:36;;;;;;;4.15;1.73;;;12.90;99.90;;;;;;5062024;28;20056;-71
2023/11/06 00:56:22;;;;;;;3.08;1.20;;;12.90;99.90;;;;;;5057072;28;20045;-71
2023/11/06 00:59:08;;;;;;;7.45;1.90;;;12.90;99.90;;;;;;5064678;28;20040;-73
2023/11/06 01:01:55;;;;;;;1.92;1.20;;;12.90;99.90;;;;;;5069243;28;20036;-71
2023/11/06 01:04:41;;;;;;;2.05;1.20;;;12.90;99.90;;;;;;5068251;28;20052;-71
2023/11/06 01:07:27;;;;;;;2.50;1.00;;;12.90;99.90;;;;;;5070252;28;20043;-70
2023/11/06 01:10:14;;;;;;;2.75;1.40;;;12.90;99.90;;;;;;5071553;28;20079;-71
2023/11/06 01:13:01;;;;;;;3.30;1.60;;;12.90;99.90;;;;;;5061195;28;20037;-71
2023/11/06 01:15:47;;;;;;;1.77;1.27;;;12.90;99.90;;;;;;5051254;28;20107;-72
2023/11/06 01:18:33;;;;;;;3.83;1.80;;;12.90;99.90;;;;;;5068827;28;20048;-71
2023/11/06 01:21:18;;;;;;;3.78;1.98;;;12.90;99.90;;;;;;5070303;28;20048;-72
2023/11/06 01:24:05;;;;;;;4.22;1.60;;;12.90;99.90;;;;;;5068336;28;20040;-71
2023/11/06 01:26:51;;;;;;;2.05;1.30;;;13.00;99.90;;;;;;5067798;28;20494;-69
2023/11/06 01:29:37;;;;;;;4.85;1.48;;;13.00;99.90;;;;;;5062989;28;20193;-71
2023/11/06 01:32:23;;;;;;;4.47;2.00;;;12.90;99.90;;;;;;5057288;28;20474;-71
2023/11/06 01:35:11;;;;;;;3.40;1.20;;;12.90;99.90;;;;;;5066532;28;20036;-71
2023/11/06 01:37:58;;;;;;;3.83;1.25;;;12.90;99.90;;;;;;5067083;28;20059;-73
2023/11/06 01:40:44;;;;;;;3.47;1.38;;;12.90;99.90;;;;;;5067416;28;20040;-73
2023/11/06 01:43:31;;;;;;;5.40;1.25;;;13.00;99.90;;;;;;5068514;28;20043;-73
2023/11/06 01:46:20;;;;;;;2.25;1.25;;;13.00;99.90;;;;;;5067682;28;20056;-72
2023/11/06 01:49:08;;;;;;;7.63;1.63;;;13.00;99.90;;;;;;5061766;28;20037;-70
2023/11/06 01:51:54;;;;;;;2.75;1.30;;;13.00;99.90;;;;;;5053235;28;20037;-72
2023/11/06 01:54:40;;;;;;;4.38;1.40;;;13.00;99.90;;;;;;5066307;28;20101;-72
2023/11/06 01:57:27;;;;;;;3.75;1.35;;;13.10;99.90;;;;;;5072550;28;20276;-72
2023/11/06 02:00:15;;;;;;;3.45;1.50;;;13.00;99.90;;;;;;5072343;28;20033;-73
2023/11/06 02:03:02;;;;;;;3.97;1.40;;;13.00;99.90;;;;;;5072419;28;20132;-74
2023/11/06 02:05:48;;;;;;;3.85;1.20;;;13.00;99.90;;;;;;5067831;28;20055;-71
2023/11/06 02:08:34;;;;;;;3.17;1.55;;;13.00;99.90;;;;;;5070661;28;20029;-72
2023/11/06 02:11:20;;;;;;;3.00;1.52;;;13.10;99.90;;;;;;5070092;28;20049;-76
2023/11/06 02:14:06;;;;;;;2.33;1.20;;;13.00;99.90;;;;;;5072602;28;20044;-73
2023/11/06 02:16:52;;;;;;;3.22;1.33;;;13.10;99.90;;;;;;5070273;28;20405;-72
2023/11/06 02:19:37;;;;;;;5.07;1.40;;;13.10;99.90;;;;;;5071979;28;20033;-70
2023/11/06 02:22:25;;;;;;;3.17;1.30;;;13.00;99.90;;;;;;5060274;28;20094;-69
2023/11/06 02:25:11;;;;;;;2.28;1.42;;;13.10;99.90;;;;;;5054172;28;20048;-72
2023/11/06 02:27:57;;;;;;;1.92;1.10;;;13.10;99.90;;;;;;5067465;28;20036;-72
2023/11/06 02:30:43;;;;;;;2.67;1.40;;;13.00;99.90;;;;;;5061986;28;20105;-73
2023/11/06 02:33:29;;;;;;;2.30;1.27;;;13.00;99.90;;;;;;5054722;28;20041;-74
2023/11/06 02:36:15;;;;;;;2.63;1.35;;;13.00;99.90;;;;;;5072216;28;20497;-74
2023/11/06 02:39:01;;;;;;;2.03;1.20;;;13.10;99.90;;;;;;5052285;28;20033;-72
2023/11/06 02:41:47;;;;;;;1.83;1.20;;;13.00;99.90;;;;;;5071642;28;20033;-73
2023/11/06 02:44:33;;;;;;;2.35;1.05;;;13.10;99.90;;;;;;5055421;28;20037;-74
2023/11/06 02:47:19;;;;;;;5.78;1.35;;;13.10;99.90;;;;;;5050392;28;20394;-73
2023/11/06 02:50:06;;;;;;;3.38;1.42;;;13.10;99.90;;;;;;5066719;28;20506;-73
2023/11/06 02:52:52;;;;;;;2.42;1.20;;;13.10;99.90;;;;;;5071519;28;20055;-74
2023/11/06 02:55:38;;;;;;;2.95;1.75;;;13.10;99.90;;;;;;5081498;28;20048;-73
2023/11/06 02:58:24;;;;;;;2.65;1.38;;;13.10;99.90;;;;;;5084334;28;20041;-74
2023/11/06 03:01:10;;;;;;;3.00;1.65;;;13.10;99.90;;;;;;5074937;28;20067;-74
2023/11/06 03:03:58;;;;;;;3.25;1.20;;;13.10;99.90;;;;;;5061720;28;20119;-73
2023/11/06 03:06:45;;;;;;;2.13;1.23;;;13.00;99.90;;;;;;5073736;28;20053;-73
2023/11/06 03:09:31;;;;;;;2.63;1.30;;;13.00;99.90;;;;;;5060285;28;20132;-71
2023/11/06 03:12:17;;;;;;;2.78;1.35;;;13.10;99.90;;;;;;5071518;28;20043;-72
2023/11/06 03:15:04;;;;;;;3.85;1.75;;;13.00;99.90;;;;;;5069572;28;20098;-72
2023/11/06 03:17:50;;;;;;;2.28;1.27;;;13.00;99.90;;;;;;5054798;28;20138;-74
2023/11/06 03:20:37;;;;;;;2.75;1.35;;;12.90;99.90;;;;;;5049729;28;20510;-72
2023/11/06 03:23:23;;;;;;;5.55;1.50;;;12.90;99.80;;;;;;5049581;28;20060;-70
2023/11/06 03:26:09;;;;;;;2.28;1.15;;;12.80;99.80;;;;;;5050469;28;20473;-69
2023/11/06 03:28:55;;;;;;;2.47;1.60;;;12.80;99.80;;;;;;5049992;28;20065;-71
2023/11/06 03:31:41;;;;;;;5.13;1.40;;;12.80;99.80;;;;;;5063060;28;20052;-70
2023/11/06 03:34:27;;;;;;;3.42;2.10;;;12.70;99.80;;;;;;5050947;28;20037;-70
2023/11/06 03:37:13;;;;;;;2.47;1.50;;;12.60;99.80;;;;;;5063967;28;20120;-70
2023/11/06 03:39:59;;;;;;;3.45;1.63;;;12.60;99.90;;;;;;5050554;28;20063;-70
2023/11/06 03:42:45;;;;;;;5.25;1.50;;;12.60;99.90;;;;;;5049156;28;20112;-70
2023/11/06 03:45:31;;;;;;;2.63;1.70;;;12.60;99.80;;;;;;5049261;28;20502;-70
2023/11/06 03:48:16;;;;;;;3.95;1.20;;;12.60;99.90;;;;;;5070181;28;20068;-70
2023/11/06 03:51:03;;;;;;;2.83;1.25;;;12.60;99.80;;;;;;5050305;28;20049;-70
2023/11/06 03:53:49;;;;;;;2.42;1.00;;;12.60;99.80;;;;;;5066029;28;20414;-70
2023/11/06 03:56:35;;;;;;;5.57;1.88;;;12.50;99.80;;;;;;5070080;28;20056;-70
2023/11/06 03:59:21;;;;;;;2.75;1.20;;;12.50;99.90;;;;;;5068114;28;20489;-70
2023/11/06 04:02:07;;;;;;;4.13;1.40;;;12.50;99.90;;;;;;5070204;28;20405;-71
2023/11/06 04:04:53;;;;;;;1.77;1.10;;;12.50;99.80;;;;;;5054022;28;20538;-70
2023/11/06 04:07:40;;;;;;;2.92;1.17;;;12.40;99.80;;;;;;5051388;28;20048;-70
2023/11/06 04:10:26;;;;;;;2.55;1.35;;;12.40;99.80;;;;;;5063509;28;20087;-70
2023/11/06 04:13:12;;;;;;;4.05;1.58;;;12.40;99.80;;;;;;5067121;28;20074;-70
2023/11/06 04:15:59;;;;;;;3.10;1.48;;;12.40;99.80;;;;;;5068300;28;20076;-71
2023/11/06 04:18:47;;;;;;;6.35;1.42;;;12.30;99.80;;;;;;5068861;28;20064;-70
2023/11/06 04:21:32;;;;;;;5.85;1.35;;;12.30;99.90;;;;;;5069984;28;20037;-71
2023/11/06 04:24:18;;;;;;;3.97;1.63;;;12.20;99.80;;;;;;5068637;28;20048;-70
2023/11/06 04:27:04;;;;;;;3.88;1.13;;;12.20;99.90;;;;;;5059839;28;20039;-71
2023/11/06 04:29:51;;;;;;;2.45;1.35;;;12.20;99.90;;;;;;5062323;28;20044;-70
2023/11/06 04:32:37;;;;;;;2.70;1.27;;;12.20;99.90;;;;;;5069973;28;20676;-70
2023/11/06 04:35:23;;;;;;;2.90;1.35;;;12.10;99.90;;;;;;5069658;28;20437;-70
2023/11/06 04:38:09;;;;;;;3.55;1.40;;;12.10;99.90;;;;;;5070493;28;20711;-71
2023/11/06 04:40:56;;;;;;;2.83;1.30;;;12.10;99.90;;;;;;5068916;28;20114;-70
2023/11/06 04:43:41;;;;;;;2.78;1.17;;;12.00;99.90;;;;;;5080370;28;20053;-69
2023/11/06 04:46:27;;;;;;;1.67;1.00;;;11.90;99.90;;;;;;5060004;28;20433;-70
2023/11/06 04:49:13;;;;;;;3.67;1.55;;;12.00;99.90;;;;;;5069862;28;20028;-69
2023/11/06 04:51:59;;;;;;;1.95;1.23;;;11.90;99.90;;;;;;5069262;28;20039;-70
2023/11/06 04:54:45;;;;;;;2.03;1.38;;;11.90;99.90;;;;;;5069246;28;20040;-69
2023/11/06 04:57:31;;;;;;;2.40;1.30;;;11.80;99.90;;;;;;5050941;28;20047;-70
2023/11/06 05:00:18;;;;;;;4.80;1.63;;;11.70;99.90;;;;;;5050498;28;20044;-69
2023/11/06 05:03:04;;;;;;;2.83;1.30;;;11.70;99.90;;;;;;5061606;28;20044;-70
2023/11/06 05:05:50;;;;;;;2.30;1.75;;;11.70;99.90;;;;;;5069730;28;20049;-70
2023/11/06 05:08:36;;;;;;;3.08;1.70;;;11.70;99.90;;;;;;5068634;28;20131;-70
2023/11/06 05:11:22;;;;;;;3.33;1.30;;;11.70;99.90;;;;;;5064837;28;20516;-70
2023/11/06 05:14:08;;;;;;;3.00;1.88;;;11.70;99.90;;;;;;5069123;28;20565;-70
2023/11/06 05:16:54;;;;;;;3.17;1.77;;;11.70;99.90;;;;;;5069332;28;20043;-70
2023/11/06 05:19:43;;;;;;;4.03;1.52;;;11.70;99.90;;;;;;5054199;28;20200;-71
2023/11/06 05:22:28;;;;;;;1.60;1.08;;;11.70;99.90;;;;;;5066039;28;20040;-69
2023/11/06 05:25:14;;;;;;;2.42;1.00;;;11.70;99.90;;;;;;5073405;28;20071;-69
2023/11/06 05:28:01;;;;;;;5.35;1.65;;;11.80;99.90;;;;;;5072021;28;20033;-70
2023/11/06 05:30:47;;;;;;;3.05;1.58;;;11.80;99.90;;;;;;5070595;28;20535;-70
2023/11/06 05:33:33;;;;;;;4.72;1.40;;;11.80;99.90;;;;;;5054174;28;20448;-72
2023/11/06 05:36:19;;;;;;;2.30;1.20;;;11.80;99.90;;;;;;5059446;28;20040;-71
2023/11/06 05:39:05;;;;;;;4.18;1.67;;;11.90;99.90;;;;;;5053828;28;20051;-71
2023/11/06 05:41:51;;;;;;;2.70;1.30;;;11.90;99.90;;;;;;5053259;28;20514;-71
2023/11/06 05:44:39;;;;;;;3.95;1.50;;;11.90;99.90;;;;;;5052714;28;20045;-72
2023/11/06 05:47:25;;;;;;;4.90;1.60;;;11.90;99.90;;;;;;5071929;28;20049;-70
2023/11/06 05:50:11;;;;;;;2.55;1.10;;;11.90;99.90;;;;;;5071580;28;20044;-76
2023/11/06 05:52:57;;;;;;;2.15;1.10;;;12.00;99.90;;;;;;5062129;28;20057;-67
2023/11/06 05:55:43;;;;;;;4.57;2.00;;;12.00;99.90;;;;;;5052964;28;20399;-66
2023/11/06 05:58:29;;;;;;;2.83;1.30;;;12.00;99.90;;;;;;5052855;28;20476;-67
2023/11/06 06:01:16;;;;;;;4.15;1.60;;;12.00;99.90;;;;;;5052271;28;20410;-68
2023/11/06 06:04:02;;;;;;;3.63;1.50;;;12.00;99.90;;;;;;5060662;28;20055;-65
2023/11/06 06:06:54;;;;;;;3.05;1.50;;;12.10;99.90;;;;;;5061056;28;20123;-64
2023/11/06 06:15:37;;;;;;;2.85;1.27;;;12.10;99.90;;;;;;5055164;28;20045;-64
2023/11/06 06:18:22;;;;;;;3.88;1.35;;;12.10;99.90;;;;;;5079498;28;20051;-64
2023/11/06 06:21:09;;;;;;;3.75;1.40;;;12.10;99.90;;;;;;5067197;28;20681;-65
2023/11/06 06:23:54;;;;;;;3.35;1.55;;;12.20;99.90;;;;;;5056385;28;20041;-65
2023/11/06 06:26:40;;;;;;;3.58;1.40;;;12.20;99.90;;;;;;5070690;28;20114;-65
2023/11/06 06:29:26;;;;;;;4.05;1.42;;;12.20;99.90;;;;;;5056618;28;20044;-65
2023/11/06 06:32:14;;;;;;;3.45;1.38;;;12.30;99.90;;;;;;5066396;28;20090;-66
2023/11/06 06:35:02;;;;;;;3.25;1.20;;;12.20;99.90;;;;;;5049640;28;20422;-68
2023/11/06 06:37:48;;;;;;;2.35;1.23;;;12.30;99.90;;;;;;5050956;28;20075;-66
2023/11/06 06:40:34;;;;;;;2.67;1.13;;;12.30;99.90;;;;;;5052757;28;20091;-65
2023/11/06 06:43:20;;;;;;;3.63;1.65;;;12.40;99.90;;;;;;5051156;28;20183;-64
2023/11/06 06:46:06;;;;;;;1.88;1.20;;;12.40;99.90;;;;;;5050241;28;20510;-66
2023/11/06 06:48:52;;;;;;;4.30;1.10;;;12.50;99.90;;;;;;5051697;28;20035;-67
2023/11/06 06:51:38;;;;;;;1.95;1.10;;;12.50;99.90;;;;;;5050431;28;20148;-65
2023/11/06 06:54:24;;;;;;;5.20;1.48;;;12.50;99.90;;;;;;5050278;28;20037;-66
2023/11/06 06:57:11;;;;;;;1.95;1.55;;;12.50;99.90;;;;;;5049490;28;20052;-66
2023/11/06 06:59:57;;;;;;;2.42;1.20;;;12.50;99.90;;;;;;5049935;28;20045;-66
2023/11/06 07:02:43;;;;;;;5.35;1.60;;;12.60;99.90;;;;;;5051939;28;20041;-66
2023/11/06 07:05:28;;;;;;;2.58;1.38;;;12.60;99.90;;;;;;5050541;28;20139;-65
2023/11/06 07:08:14;;;;;;;4.20;1.85;;;12.70;99.90;;;;;;5050130;28;20034;-66
2023/11/06 07:11:01;;;;;;;4.55;1.60;;;12.70;99.90;;;;;;5049869;28;20036;-66
2023/11/06 07:13:47;;;;;;;1.83;1.42;;;12.70;99.90;;;;;;5050554;28;20517;-66
2023/11/06 07:16:33;;;;;;;4.78;1.40;;;12.80;99.90;;;;;;5050913;28;20049;-66
2023/11/06 07:19:19;;;;;;;6.28;1.70;;;12.80;99.90;;;;;;5064068;28;20459;-67
2023/11/06 07:22:05;;;;;;;3.45;1.20;;;12.90;99.90;;;;;;5061278;28;20390;-67
2023/11/06 07:24:51;;;;;;;5.63;1.50;;;12.90;99.90;;;;;;5061325;28;20059;-68
2023/11/06 07:27:37;;;;;;;3.92;1.38;;;12.90;99.90;;;;;;5070242;28;20048;-66
2023/11/06 07:30:23;;;;;;;3.38;1.25;;;13.00;99.90;;;;;;5058869;28;20052;-66
2023/11/06 07:33:09;;;;;;;4.22;1.45;;;13.00;99.90;;;;;;5055651;28;20441;-66
2023/11/06 07:35:55;;;;;;;11.30;1.75;;;12.90;99.90;;;;;;5060541;28;20056;-66
2023/11/06 07:38:41;;;;;;;3.30;1.23;;;13.10;99.90;;;;;;5068898;28;20047;-65
2023/11/06 07:41:27;;;;;;;1.52;1.30;;;13.10;99.90;;;;;;5069887;28;20443;-66
2023/11/06 07:44:13;;;;;;;3.38;1.25;;;13.20;99.90;;;;;;5069531;28;20041;-66
2023/11/06 07:46:59;;;;;;;2.33;1.20;;;13.20;99.90;;;;;;5068624;28;20052;-64
2023/11/06 07:49:46;;;;;;;3.15;1.60;;;13.20;99.90;;;;;;5049228;28;20128;-66
2023/11/06 07:52:32;;;;;;;3.90;1.90;;;13.20;99.90;;;;;;5049316;28;20106;-66
2023/11/06 07:55:17;;;;;;;5.40;1.77;;;13.20;99.90;;;;;;5050872;28;20045;-65
2023/11/06 07:58:04;;;;;;;4.22;1.80;;;13.20;99.90;;;;;;5049156;28;20044;-66
2023/11/06 08:00:50;;;;;;;1.83;0.90;;;13.20;99.90;;;;;;5053597;28;20410;-65
2023/11/06 08:03:36;;;;;;;4.43;1.75;;;13.20;99.90;;;;;;5069740;28;20124;-65
2023/11/06 08:06:22;;;;;;;6.03;1.40;;;13.20;99.90;;;;;;5069865;28;20111;-66
2023/11/06 08:09:08;;;;;;;4.43;1.15;;;13.20;99.90;;;;;;5069325;28;20044;-66
2023/11/06 08:11:54;;;;;;;2.50;1.30;;;13.20;99.90;;;;;;5059798;28;20041;-65
2023/11/06 08:14:40;;;;;;;2.38;1.00;;;13.20;99.90;;;;;;5050433;28;20114;-66
2023/11/06 08:17:26;;;;;;;2.15;0.90;;;13.20;99.90;;;;;;5052511;28;20056;-66
2023/11/06 08:20:12;;;;;;;2.88;1.00;;;13.20;99.90;;;;;;5069241;28;20040;-66
2023/11/06 08:22:58;;;;;;;2.70;1.05;;;13.20;99.90;;;;;;5069322;28;20036;-66
2023/11/06 08:25:44;;;;;;;2.35;1.00;;;13.20;99.90;;;;;;5065484;28;20106;-65
2023/11/06 08:28:30;;;;;;;3.92;1.10;;;13.20;99.80;;;;;;5052764;28;20048;-66
2023/11/06 08:31:16;;;;;;;2.22;1.00;;;13.20;99.80;;;;;;5068671;28;20048;-66
2023/11/06 08:34:02;;;;;;;3.72;0.93;;;13.20;99.80;;;;;;5054379;28;20317;-66
2023/11/06 08:36:48;;;;;;;1.50;0.90;;;13.30;99.80;;;;;;5053753;28;20082;-64
2023/11/06 08:39:34;;;;;;;1.25;0.88;;;13.20;99.80;;;;;;5055161;28;20503;-65
2023/11/06 08:42:20;;;;;;;2.90;1.10;;;13.30;99.80;;;;;;5047872;28;20421;-66
2023/11/06 08:45:07;;;;;;;3.50;1.20;;;13.40;99.80;;;;;;5049409;28;20084;-66
2023/11/06 08:47:53;;;;;;;2.45;1.00;;;13.40;99.80;;;;;;5068451;28;20037;-66
2023/11/06 08:50:39;;;;;;;2.05;1.00;;;13.50;99.80;;;;;;5068360;28;20517;-67
2023/11/06 08:53:25;;;;;;;2.20;1.20;;;13.50;99.90;;;;;;5068620;28;20033;-64
2023/11/06 08:56:11;;;;;;;3.80;1.20;;;13.70;99.80;;;;;;5057701;28;20432;-65
2023/11/06 08:58:59;;;;;;;1.77;1.23;;;13.70;99.70;;;;;;5052763;28;20047;-64
2023/11/06 09:01:48;;;;;;;2.30;1.15;;;13.80;99.60;;;;;;5052783;28;20064;-65
2023/11/06 09:04:34;;;;;;;2.92;1.48;;;13.80;99.60;;;;;;5052801;28;20040;-64
2023/11/06 09:07:20;;;;;;;2.30;1.25;;;13.90;99.50;;;;;;5037562;28;20140;-65
2023/11/06 09:10:07;;;;;;;3.78;1.52;;;13.90;99.40;;;;;;5050501;28;20054;-64
2023/11/06 09:12:53;;;;;;;2.30;1.30;;;14.00;99.40;;;;;;5072871;28;20515;-67
2023/11/06 09:15:40;;;;;;;6.50;1.17;;;14.00;99.30;;;;;;5072485;28;20044;-67
2023/11/06 09:18:26;;;;;;;3.08;1.30;;;14.10;99.30;;;;;;5071584;28;20044;-67
2023/11/06 09:21:13;;;;;;;4.10;1.45;;;14.20;99.40;;;;;;5053626;28;20444;-67
2023/11/06 09:23:59;;;;;;;3.38;1.50;;;14.20;99.30;;;;;;5052999;28;20076;-67
2023/11/06 09:26:46;;;;;;;4.15;1.48;;;14.30;99.20;;;;;;5065065;28;20057;-67
2023/11/06 09:29:32;;;;;;;2.92;1.10;;;14.30;99.10;;;;;;5066740;28;20048;-67
2023/11/06 09:32:18;;;;;;;1.55;0.93;;;14.30;99.00;;;;;;5052645;28;20033;-67
2023/11/06 09:35:04;;;;;;;2.53;1.10;;;14.40;98.90;;;;;;5051263;28;20045;-68
2023/11/06 09:37:50;;;;;;;3.05;1.45;;;14.40;98.90;;;;;;5066906;28;20051;-67
2023/11/06 09:40:36;;;;;;;3.00;1.10;;;14.40;98.90;;;;;;5072513;28;20485;-66
2023/11/06 09:43:23;;;;;;;2.92;1.20;;;14.50;98.80;;;;;;5071468;28;20052;-65
2023/11/06 09:46:12;;;;;;;2.03;1.20;;;14.50;98.70;;;;;;5071885;28;20074;-65
2023/11/06 09:49:12;;;;;;;1.90;1.00;;;14.50;98.60;;;;;;5071245;28;20036;-64
2023/11/06 09:52:03;;;;;;;2.30;1.23;;;14.60;98.50;;;;;;5071389;28;20075;-63
2023/11/06 09:54:51;;;;;;;4.03;1.70;;;14.60;98.40;;;;;;5055718;28;20047;-64
2023/11/06 09:57:38;;;;;;;2.72;1.30;;;14.60;98.30;;;;;;5071956;28;20295;-64
2023/11/06 10:00:24;;;;;;;2.85;1.45;;;14.60;98.30;;;;;;5051814;28;20410;-64
2023/11/06 10:03:10;;;;;;;3.45;1.60;;;14.70;98.50;;;;;;5050991;28;20325;-65
2023/11/06 10:05:57;;;;;;;6.00;1.40;;;14.70;98.20;;;;;;5052209;28;20053;-65
2023/11/06 10:08:44;;;;;;;1.98;1.17;;;14.80;98.20;;;;;;5051452;28;20037;-64
2023/11/06 10:11:30;;;;;;;4.82;1.55;;;14.90;98.20;;;;;;5052435;28;20549;-64
2023/11/06 10:14:16;;;;;;;1.95;1.30;;;14.90;98.10;;;;;;5051028;28;20048;-66
2023/11/06 10:17:03;;;;;;;3.08;1.38;;;15.00;98.10;;;;;;5051004;28;20087;-65
2023/11/06 10:20:04;;;;;;;2.10;0.95;;;15.00;98.00;;;;;;5051980;28;20041;-64
2023/11/06 10:22:57;;;;;;;2.53;1.10;;;15.00;97.70;;;;;;5052490;28;20041;-65
2023/11/06 10:25:43;;;;;;;2.78;1.10;;;15.00;97.60;;;;;;5071402;28;20558;-65
2023/11/06 10:28:30;;;;;;;1.83;1.10;;;14.90;97.50;;;;;;5061958;28;20037;-65
2023/11/06 10:31:16;;;;;;;2.03;1.30;;;14.90;97.40;;;;;;5059354;28;20044;-65
2023/11/06 10:34:02;;;;;;;4.22;1.42;;;14.90;97.40;;;;;;5063513;28;20036;-65
2023/11/06 10:37:13;;;;;;;5.47;1.88;;;15.00;97.30;;;;;;5059981;28;20525;-65
2023/11/06 10:39:59;;;;;;;4.35;1.45;;;15.00;97.30;;;;;;5051134;28;20560;-65
2023/11/06 10:42:48;;;;;;;2.65;1.10;;;15.00;97.10;;;;;;5050935;28;20548;-65
2023/11/06 10:45:34;;;;;;;1.30;0.93;;;15.00;97.00;;;;;;5063763;28;20048;-64
2023/11/06 10:48:32;;;;;;;3.38;1.85;;;15.10;97.00;;;;;;5070353;28;20052;-66
2023/11/06 10:51:18;;;;;;;2.05;0.90;;;15.10;96.80;;;;;;5060293;28;20033;-67
2023/11/06 10:54:05;;;;;;;2.40;1.23;;;15.10;96.80;;;;;;5050324;28;20052;-65
2023/11/06 10:56:57;;;;;;;5.25;1.55;;;15.10;96.50;;;;;;5067760;28;20094;-65
2023/11/06 10:59:43;;;;;;;5.15;1.33;;;15.10;96.40;;;;;;5069380;28;20483;-65
2023/11/06 11:02:41;;;;;;;2.40;1.30;;;15.00;96.60;;;;;;5068901;28;20041;-66
2023/11/06 11:05:30;;;;;;;2.50;1.23;;;15.10;96.50;;;;;;5071015;28;20052;-68
2023/11/06 11:08:19;;;;;;;3.70;1.10;;;15.10;96.50;;;;;;5059556;28;20033;-68
2023/11/06 11:11:05;;;;;;;2.78;1.20;;;15.10;96.20;;;;;;5050621;28;20050;-66
2023/11/06 11:13:51;;;;;;;3.22;1.80;;;15.10;96.20;;;;;;5050792;28;20482;-68
2023/11/06 11:16:45;;;;;;;3.88;2.05;;;15.10;96.00;;;;;;5068597;28;20060;-68
2023/11/06 11:19:33;;;;;;;5.38;1.83;;;15.20;95.90;;;;;;5056708;28;20124;-68
2023/11/06 11:22:19;;;;;;;4.50;1.33;;;15.20;96.10;;;;;;5050831;28;20045;-67
2023/11/06 11:25:05;;;;;;;2.42;1.35;;;15.20;95.90;;;;;;5051361;28;20068;-66
2023/11/06 11:28:13;;;;;;;2.50;1.10;;;15.20;95.80;;;;;;5049981;28;20041;-68
2023/11/06 11:31:30;;;;;;;3.25;1.52;;;15.20;95.80;;;;;;5057969;28;20607;-66
2023/11/06 11:34:30;;;;;;;1.98;1.17;;;15.20;95.60;;;;;;5070756;28;20468;-66
2023/11/06 11:37:30;;;;;;;5.10;1.90;;;15.20;95.50;;;;;;5069100;28;20041;-67
2023/11/06 11:40:16;;;;;;;3.05;1.08;;;15.20;95.40;;;;;;5069586;28;20039;-67
2023/11/06 11:43:36;;;;;;;2.47;1.42;;;15.20;95.40;;;;;;5053183;28;20041;-67
2023/11/06 11:46:40;;;;;;;2.72;1.20;;;15.30;95.30;;;;;;5050304;28;20048;-67
2023/11/06 11:49:45;;;;;;;0.80;0.80;;;15.40;95.30;;;;;;5063121;28;20033;-66
2023/11/06 11:52:31;;;;;;;4.60;1.73;;;15.30;95.10;;;;;;5064168;28;20041;-66
2023/11/06 11:55:30;;;;;;;4.72;1.35;;;15.40;95.20;;;;;;5065722;28;20270;-67
2023/11/06 11:58:16;;;;;;;1.60;0.98;;;15.40;95.00;;;;;;5050102;28;20079;-66
2023/11/06 12:01:02;;;;;;;4.20;1.02;;;15.40;94.90;;;;;;5048282;28;20037;-66
2023/11/06 12:03:48;;;;;;;1.48;1.10;;;15.40;94.80;;;;;;5065639;28;20047;-67
2023/11/06 12:06:34;;;;;;;3.08;1.00;;;15.40;94.90;;;;;;5069456;28;20135;-66
2023/11/06 12:09:20;;;;;;;1.88;1.10;;;15.40;94.80;;;;;;5065099;28;20040;-66
2023/11/06 12:12:07;;;;;;;2.08;1.10;;;15.30;94.70;;;;;;5049806;28;20052;-66
2023/11/06 12:14:55;;;;;;;4.45;1.40;;;15.30;94.70;;;;;;5056385;28;20039;-65
2023/11/06 12:17:41;;;;;;;4.38;1.60;;;15.30;94.80;;;;;;5048675;28;20064;-67
2023/11/06 12:20:27;;;;;;;5.55;2.50;;;15.30;94.80;;;;;;5052149;28;20461;-66
2023/11/06 12:23:13;;;;;;;5.70;1.60;;;15.30;94.90;;;;;;5068596;28;20068;-66
2023/11/06 12:26:09;;;;;;;3.25;1.15;;;15.30;94.90;;;;;;5068094;28;20040;-67
2023/11/06 12:28:56;;;;;;;4.45;1.73;;;15.30;94.90;;;;;;5049292;28;20043;-66
2023/11/06 12:31:42;;;;;;;4.10;1.40;;;15.40;94.90;;;;;;5065323;28;20115;-67
2023/11/06 12:34:28;;;;;;;4.30;1.95;;;15.40;94.90;;;;;;5048316;28;20060;-67
2023/11/06 12:37:14;;;;;;;4.75;1.60;;;15.30;94.90;;;;;;5048265;28;20048;-66
2023/11/06 12:40:17;;;;;;;3.50;1.20;;;15.40;95.00;;;;;;5050372;28;20044;-66
2023/11/06 12:43:03;;;;;;;6.53;1.25;;;15.40;94.90;;;;;;5064994;28;20041;-66
2023/11/06 12:45:55;;;;;;;4.80;1.50;;;15.40;94.80;;;;;;5077794;28;20429;-67
2023/11/06 12:48:41;;;;;;;4.18;1.50;;;15.40;94.80;;;;;;5057735;28;20040;-67
2023/11/06 12:51:27;;;;;;;4.93;1.40;;;15.40;94.90;;;;;;5060539;28;20036;-66
2023/11/06 12:54:17;;;;;;;4.57;1.23;;;15.40;94.90;;;;;;5049478;28;20056;-66
2023/11/06 12:57:07;;;;;;;3.45;1.70;;;15.40;94.90;;;;;;5066547;28;20047;-66
2023/11/06 12:59:53;;;;;;;3.13;1.35;;;15.40;94.90;;;;;;5067279;28;20047;-66
2023/11/06 13:02:39;;;;;;;5.93;1.50;;;15.40;94.80;;;;;;5048758;28;20063;-67
2023/11/06 13:05:26;;;;;;;2.03;1.15;;;15.50;94.90;;;;;;5050588;28;20044;-66
2023/11/06 13:08:12;;;;;;;3.97;1.30;;;15.50;94.90;;;;;;5047486;28;20044;-67
2023/11/06 13:10:58;;;;;;;8.40;2.03;;;15.50;94.90;;;;;;5048734;28;20800;-67
2023/11/06 13:13:44;;;;;;;2.97;1.70;;;15.40;94.80;;;;;;5057982;28;20036;-67
2023/11/06 13:16:31;;;;;;;4.30;2.20;;;15.40;94.80;;;;;;5062388;28;20060;-66
2023/11/06 13:19:18;;;;;;;4.40;1.20;;;15.40;95.00;;;;;;5048614;28;20123;-66
2023/11/06 13:22:04;;;;;;;1.67;1.20;;;15.40;94.90;;;;;;5049260;28;20055;-66
2023/11/06 13:24:50;;;;;;;3.20;1.80;;;15.40;95.00;;;;;;5047893;28;20043;-66
2023/11/06 13:27:39;;;;;;;4.10;1.70;;;15.40;95.00;;;;;;5049465;28;20052;-66
2023/11/06 13:30:27;;;;;;;4.32;1.77;;;15.40;95.00;;;;;;5063826;28;20529;-66
2023/11/06 13:33:13;;;;;;;3.15;1.98;;;15.40;95.00;;;;;;5047852;28;20049;-66
2023/11/06 13:35:59;;;;;;;3.83;1.27;;;15.40;95.10;;;;;;5073025;28;20103;-66
2023/11/06 13:38:46;;;;;;;1.85;0.93;;;15.40;95.20;;;;;;5053085;28;20213;-65
2023/11/06 13:41:35;;;;;;;3.00;1.13;;;15.30;95.10;;;;;;5049691;28;20546;-66
2023/11/06 13:44:23;;;;;;;4.10;1.35;;;15.30;95.10;;;;;;5050975;28;20059;-66
2023/11/06 13:47:09;;;;;;;3.17;1.38;;;15.30;95.20;;;;;;5072403;28;20090;-66
2023/11/06 13:49:55;;;;;;;2.40;1.30;;;15.30;95.30;;;;;;5088849;28;20044;-66
2023/11/06 13:52:42;;;;;;;5.30;1.90;;;15.30;95.40;;;;;;5051754;28;20056;-67
2023/11/06 13:55:36;;;;;;;3.72;1.80;;;15.30;95.40;;;;;;5051848;28;20068;-66
2023/11/06 13:58:21;;;;;;;3.78;1.30;;;15.30;95.40;;;;;;5051426;28;20076;-66
2023/11/06 14:01:12;;;;;;;6.95;1.67;;;15.30;95.70;;;;;;5054128;28;20041;-66
2023/11/06 14:03:58;;;;;;;2.63;1.20;;;15.30;95.40;;;;;;5052484;28;20036;-66
2023/11/06 14:06:47;;;;;;;3.35;1.30;;;15.40;95.50;;;;;;5051638;28;20472;-65
2023/11/06 14:12:19;;;;;;;4.15;1.88;;;15.40;95.50;;;;;;5052230;28;20148;-65
2023/11/06 14:15:05;;;;;;;4.15;2.05;;;15.40;95.50;;;;;;5051735;28;20333;-65
2023/11/06 14:17:55;;;;;;;5.97;2.13;;;15.30;95.50;;;;;;5051492;28;20363;-65
2023/11/06 14:20:41;;;;;;;7.03;2.17;;;15.30;95.60;;;;;;5063832;28;20527;-65
2023/11/06 14:23:28;;;;;;;5.00;2.45;;;15.30;95.60;;;;;;5051691;28;20045;-64
2023/11/06 14:26:16;;;;;;;5.60;2.05;;;15.30;95.60;;;;;;5053853;28;20049;-67
2023/11/06 14:29:01;;;;;;;3.85;1.90;;;15.30;95.60;;;;;;5060256;28;20040;-67
2023/11/06 14:31:49;;;;;;;4.97;1.85;;;15.30;95.80;;;;;;5063663;28;20055;-65
2023/11/06 14:34:35;;;;;;;4.72;2.30;;;15.20;95.60;;;;;;5064566;28;20068;-64
2023/11/06 14:37:21;;;;;;;12.60;3.33;;;15.20;95.60;;;;;;5052375;28;20041;-70
2023/11/06 14:40:17;;;;;;;5.60;2.85;;;15.20;95.70;;;;;;5050286;28;20124;-73